Eisenstein, Wisconsin
Current Conditions -  °F | °C
As of 3:55 PM on Monday 20 Oct 2014 (Local Time) from KPBH Reporting Station
Overcast Overcast  
Wind Chill: 49°   Ceiling: 3900
Heat Index: 49°   Visibility: 10mi
Dew Point: 40°   Wind: 3mph
Humidity: 72%   Direction: 350°N
Pressure: 29.96"   Gusts: NA
Location:  45.9599°N, 90.2362°W
Report Text: KPBH 202055Z AUTO 35003KT 10SM SCT028 OVC039 09/04 A2996 RMK AO2 T00930044
Loading
Personal Weather Stations






























Interactive Weather Map
Tropical Storm Tracking
New forecast layout! Learn more

10-Day Weather Forecast

Advertisements
Track Severe Weather on mobile